sensor_id;sensor_type;location;lat;lon;timestamp;P1;durP1;ratioP1;P2;durP2;ratioP2
14613;SDS011;7393;51.446;6.800;2023-03-14T00:02:25;3.93;;;1.60;;
14613;SDS011;7393;51.446;6.800;2023-03-14T00:04:53;5.20;;;1.60;;
14613;SDS011;7393;51.446;6.800;2023-03-14T00:07:20;5.53;;;1.40;;
14613;SDS011;7393;51.446;6.800;2023-03-14T00:09:49;5.30;;;1.73;;
14613;SDS011;7393;51.446;6.800;2023-03-14T00:12:16;4.73;;;1.40;;
14613;SDS011;7393;51.446;6.800;2023-03-14T00:14:44;5.23;;;1.80;;
14613;SDS011;7393;51.446;6.800;2023-03-14T00:17:11;6.43;;;1.97;;
14613;SDS011;7393;51.446;6.800;2023-03-14T00:19:38;6.07;;;1.70;;
14613;SDS011;7393;51.446;6.800;2023-03-14T00:22:05;4.37;;;1.30;;
14613;SDS011;7393;51.446;6.800;2023-03-14T00:24:34;5.67;;;1.63;;
14613;SDS011;7393;51.446;6.800;2023-03-14T00:27:01;7.97;;;1.80;;
14613;SDS011;7393;51.446;6.800;2023-03-14T00:29:28;4.40;;;1.73;;
14613;SDS011;7393;51.446;6.800;2023-03-14T00:31:59;6.63;;;1.80;;
14613;SDS011;7393;51.446;6.800;2023-03-14T00:34:28;4.43;;;1.90;;
14613;SDS011;7393;51.446;6.800;2023-03-14T00:36:55;6.73;;;1.80;;
14613;SDS011;7393;51.446;6.800;2023-03-14T00:39:21;6.63;;;1.93;;
14613;SDS011;7393;51.446;6.800;2023-03-14T00:41:57;7.43;;;1.90;;
14613;SDS011;7393;51.446;6.800;2023-03-14T00:44:30;7.70;;;2.10;;
14613;SDS011;7393;51.446;6.800;2023-03-14T00:47:05;7.40;;;2.60;;
14613;SDS011;7393;51.446;6.800;2023-03-14T00:49:38;7.37;;;2.77;;
14613;SDS011;7393;51.446;6.800;2023-03-14T00:52:04;4.67;;;2.13;;
14613;SDS011;7393;51.446;6.800;2023-03-14T00:54:31;4.87;;;1.57;;
14613;SDS011;7393;51.446;6.800;2023-03-14T00:56:58;7.40;;;1.87;;
14613;SDS011;7393;51.446;6.800;2023-03-14T00:59:25;5.53;;;1.83;;
14613;SDS011;7393;51.446;6.800;2023-03-14T01:01:52;6.23;;;1.50;;
14613;SDS011;7393;51.446;6.800;2023-03-14T01:04:20;4.47;;;1.60;;
14613;SDS011;7393;51.446;6.800;2023-03-14T01:06:47;4.63;;;1.40;;
14613;SDS011;7393;51.446;6.800;2023-03-14T01:09:14;8.80;;;1.97;;
14613;SDS011;7393;51.446;6.800;2023-03-14T01:11:42;5.30;;;2.00;;
14613;SDS011;7393;51.446;6.800;2023-03-14T01:14:11;7.47;;;2.27;;
14613;SDS011;7393;51.446;6.800;2023-03-14T01:16:38;7.70;;;2.23;;
14613;SDS011;7393;51.446;6.800;2023-03-14T01:19:05;10.73;;;2.90;;
14613;SDS011;7393;51.446;6.800;2023-03-14T01:21:34;10.67;;;2.60;;
14613;SDS011;7393;51.446;6.800;2023-03-14T01:24:02;6.00;;;2.60;;
14613;SDS011;7393;51.446;6.800;2023-03-14T01:26:31;10.43;;;2.67;;
14613;SDS011;7393;51.446;6.800;2023-03-14T01:28:59;10.40;;;2.60;;
14613;SDS011;7393;51.446;6.800;2023-03-14T01:31:26;10.33;;;2.97;;
14613;SDS011;7393;51.446;6.800;2023-03-14T01:33:56;8.33;;;3.03;;
14613;SDS011;7393;51.446;6.800;2023-03-14T01:36:22;8.20;;;2.50;;
14613;SDS011;7393;51.446;6.800;2023-03-14T01:38:51;4.57;;;1.50;;
14613;SDS011;7393;51.446;6.800;2023-03-14T01:41:18;6.93;;;1.60;;
14613;SDS011;7393;51.446;6.800;2023-03-14T01:43:47;4.60;;;1.37;;
14613;SDS011;7393;51.446;6.800;2023-03-14T01:46:17;8.63;;;1.73;;
14613;SDS011;7393;51.446;6.800;2023-03-14T01:48:55;3.57;;;1.20;;
14613;SDS011;7393;51.446;6.800;2023-03-14T01:51:29;4.00;;;1.50;;
14613;SDS011;7393;51.446;6.800;2023-03-14T01:54:01;9.33;;;2.03;;
14613;SDS011;7393;51.446;6.800;2023-03-14T01:56:32;7.53;;;2.07;;
14613;SDS011;7393;51.446;6.800;2023-03-14T01:58:59;8.70;;;1.87;;
14613;SDS011;7393;51.446;6.800;2023-03-14T02:01:29;5.33;;;1.83;;
14613;SDS011;7393;51.446;6.800;2023-03-14T02:03:57;8.83;;;2.40;;
14613;SDS011;7393;51.446;6.800;2023-03-14T02:06:29;7.83;;;1.80;;
14613;SDS011;7393;51.446;6.800;2023-03-14T02:09:03;5.73;;;1.77;;
14613;SDS011;7393;51.446;6.800;2023-03-14T02:11:30;4.53;;;1.90;;
14613;SDS011;7393;51.446;6.800;2023-03-14T02:13:57;7.93;;;1.70;;
14613;SDS011;7393;51.446;6.800;2023-03-14T02:16:25;10.47;;;1.87;;
14613;SDS011;7393;51.446;6.800;2023-03-14T02:18:52;4.17;;;1.47;;
14613;SDS011;7393;51.446;6.800;2023-03-14T02:21:20;7.47;;;1.43;;
14613;SDS011;7393;51.446;6.800;2023-03-14T02:23:57;7.87;;;2.00;;
14613;SDS011;7393;51.446;6.800;2023-03-14T02:26:34;6.30;;;2.10;;
14613;SDS011;7393;51.446;6.800;2023-03-14T02:29:06;8.70;;;2.67;;
14613;SDS011;7393;51.446;6.800;2023-03-14T02:31:33;12.13;;;2.57;;
14613;SDS011;7393;51.446;6.800;2023-03-14T02:34:00;8.47;;;2.30;;
14613;SDS011;7393;51.446;6.800;2023-03-14T02:36:27;4.87;;;1.33;;
14613;SDS011;7393;51.446;6.800;2023-03-14T02:38:58;6.63;;;2.10;;
14613;SDS011;7393;51.446;6.800;2023-03-14T02:41:31;7.57;;;1.77;;
14613;SDS011;7393;51.446;6.800;2023-03-14T02:43:58;10.53;;;1.70;;
14613;SDS011;7393;51.446;6.800;2023-03-14T02:46:26;7.63;;;1.60;;
14613;SDS011;7393;51.446;6.800;2023-03-14T02:48:54;6.23;;;1.83;;
14613;SDS011;7393;51.446;6.800;2023-03-14T02:51:24;8.10;;;1.70;;
14613;SDS011;7393;51.446;6.800;2023-03-14T02:53:52;7.70;;;1.83;;
14613;SDS011;7393;51.446;6.800;2023-03-14T02:56:18;5.90;;;1.70;;
14613;SDS011;7393;51.446;6.800;2023-03-14T02:58:45;9.03;;;2.27;;
14613;SDS011;7393;51.446;6.800;2023-03-14T03:01:12;6.90;;;1.70;;
14613;SDS011;7393;51.446;6.800;2023-03-14T03:03:40;7.10;;;1.57;;
14613;SDS011;7393;51.446;6.800;2023-03-14T03:06:07;6.63;;;1.63;;
14613;SDS011;7393;51.446;6.800;2023-03-14T03:08:34;9.23;;;1.80;;
14613;SDS011;7393;51.446;6.800;2023-03-14T03:11:01;6.37;;;1.40;;
14613;SDS011;7393;51.446;6.800;2023-03-14T03:13:28;8.93;;;2.00;;
14613;SDS011;7393;51.446;6.800;2023-03-14T03:15:54;8.83;;;2.07;;
14613;SDS011;7393;51.446;6.800;2023-03-14T03:18:21;10.57;;;1.70;;
14613;SDS011;7393;51.446;6.800;2023-03-14T03:20:49;6.07;;;1.60;;
14613;SDS011;7393;51.446;6.800;2023-03-14T03:23:16;6.80;;;1.70;;
14613;SDS011;7393;51.446;6.800;2023-03-14T03:25:47;4.57;;;1.57;;
14613;SDS011;7393;51.446;6.800;2023-03-14T03:28:14;5.87;;;1.57;;
14613;SDS011;7393;51.446;6.800;2023-03-14T03:30:41;5.60;;;1.70;;
14613;SDS011;7393;51.446;6.800;2023-03-14T03:33:08;3.70;;;1.40;;
14613;SDS011;7393;51.446;6.800;2023-03-14T03:35:41;8.90;;;1.80;;
14613;SDS011;7393;51.446;6.800;2023-03-14T03:38:10;6.93;;;1.73;;
14613;SDS011;7393;51.446;6.800;2023-03-14T03:40:38;8.30;;;1.77;;
14613;SDS011;7393;51.446;6.800;2023-03-14T03:43:04;8.60;;;1.67;;
14613;SDS011;7393;51.446;6.800;2023-03-14T03:45:31;7.47;;;1.67;;
14613;SDS011;7393;51.446;6.800;2023-03-14T03:47:58;6.90;;;1.70;;
14613;SDS011;7393;51.446;6.800;2023-03-14T03:50:25;9.27;;;1.63;;
14613;SDS011;7393;51.446;6.800;2023-03-14T03:52:51;8.10;;;1.80;;
14613;SDS011;7393;51.446;6.800;2023-03-14T03:55:20;6.37;;;1.63;;
14613;SDS011;7393;51.446;6.800;2023-03-14T03:57:46;4.60;;;1.43;;
14613;SDS011;7393;51.446;6.800;2023-03-14T04:00:13;12.23;;;1.83;;
14613;SDS011;7393;51.446;6.800;2023-03-14T04:02:40;8.63;;;1.83;;
14613;SDS011;7393;51.446;6.800;2023-03-14T04:05:07;6.63;;;1.87;;
14613;SDS011;7393;51.446;6.800;2023-03-14T04:07:34;10.43;;;1.80;;
14613;SDS011;7393;51.446;6.800;2023-03-14T04:10:01;8.40;;;1.57;;
14613;SDS011;7393;51.446;6.800;2023-03-14T04:12:29;8.33;;;1.70;;
14613;SDS011;7393;51.446;6.800;2023-03-14T04:14:56;8.33;;;1.63;;
14613;SDS011;7393;51.446;6.800;2023-03-14T04:17:23;6.47;;;1.33;;
14613;SDS011;7393;51.446;6.800;2023-03-14T04:19:49;7.67;;;1.77;;
14613;SDS011;7393;51.446;6.800;2023-03-14T04:22:18;7.77;;;2.53;;
14613;SDS011;7393;51.446;6.800;2023-03-14T04:24:45;8.37;;;2.53;;
14613;SDS011;7393;51.446;6.800;2023-03-14T04:27:12;10.03;;;2.17;;
14613;SDS011;7393;51.446;6.800;2023-03-14T04:29:41;10.10;;;3.27;;
14613;SDS011;7393;51.446;6.800;2023-03-14T04:32:07;7.30;;;2.93;;
14613;SDS011;7393;51.446;6.800;2023-03-14T04:34:34;11.07;;;3.60;;
14613;SDS011;7393;51.446;6.800;2023-03-14T04:37:01;7.63;;;2.57;;
14613;SDS011;7393;51.446;6.800;2023-03-14T04:39:28;7.70;;;2.57;;
14613;SDS011;7393;51.446;6.800;2023-03-14T04:41:55;7.43;;;1.70;;
14613;SDS011;7393;51.446;6.800;2023-03-14T04:44:22;4.97;;;1.60;;
14613;SDS011;7393;51.446;6.800;2023-03-14T04:46:50;5.43;;;1.50;;
14613;SDS011;7393;51.446;6.800;2023-03-14T04:49:17;5.73;;;1.90;;
14613;SDS011;7393;51.446;6.800;2023-03-14T04:51:43;10.47;;;2.40;;
14613;SDS011;7393;51.446;6.800;2023-03-14T04:54:10;7.37;;;2.00;;
14613;SDS011;7393;51.446;6.800;2023-03-14T04:56:37;8.70;;;2.30;;
14613;SDS011;7393;51.446;6.800;2023-03-14T04:59:04;9.37;;;2.63;;
14613;SDS011;7393;51.446;6.800;2023-03-14T05:01:31;9.47;;;2.43;;
14613;SDS011;7393;51.446;6.800;2023-03-14T05:03:59;8.87;;;2.07;;
14613;SDS011;7393;51.446;6.800;2023-03-14T05:06:26;5.50;;;1.63;;
14613;SDS011;7393;51.446;6.800;2023-03-14T05:08:53;6.47;;;1.77;;
14613;SDS011;7393;51.446;6.800;2023-03-14T05:11:19;8.33;;;2.07;;
14613;SDS011;7393;51.446;6.800;2023-03-14T05:13:46;8.40;;;2.23;;
14613;SDS011;7393;51.446;6.800;2023-03-14T05:16:13;5.90;;;1.97;;
14613;SDS011;7393;51.446;6.800;2023-03-14T05:18:40;6.07;;;2.07;;
14613;SDS011;7393;51.446;6.800;2023-03-14T05:21:08;6.67;;;2.17;;
14613;SDS011;7393;51.446;6.800;2023-03-14T05:23:35;7.97;;;1.97;;
14613;SDS011;7393;51.446;6.800;2023-03-14T05:26:01;5.77;;;2.00;;
14613;SDS011;7393;51.446;6.800;2023-03-14T05:28:28;6.60;;;1.77;;
14613;SDS011;7393;51.446;6.800;2023-03-14T05:30:55;5.17;;;1.80;;
14613;SDS011;7393;51.446;6.800;2023-03-14T05:33:22;4.43;;;1.90;;
14613;SDS011;7393;51.446;6.800;2023-03-14T05:35:48;3.70;;;1.30;;
14613;SDS011;7393;51.446;6.800;2023-03-14T05:38:17;9.70;;;2.07;;
14613;SDS011;7393;51.446;6.800;2023-03-14T05:40:44;6.13;;;2.27;;
14613;SDS011;7393;51.446;6.800;2023-03-14T05:43:11;6.83;;;1.83;;
14613;SDS011;7393;51.446;6.800;2023-03-14T05:45:38;10.10;;;3.13;;
14613;SDS011;7393;51.446;6.800;2023-03-14T05:48:05;9.27;;;2.47;;
14613;SDS011;7393;51.446;6.800;2023-03-14T05:50:32;6.27;;;2.63;;
14613;SDS011;7393;51.446;6.800;2023-03-14T05:52:59;9.47;;;2.47;;
14613;SDS011;7393;51.446;6.800;2023-03-14T05:55:27;6.47;;;1.80;;
14613;SDS011;7393;51.446;6.800;2023-03-14T05:57:54;4.53;;;1.80;;
14613;SDS011;7393;51.446;6.800;2023-03-14T06:00:21;5.87;;;1.50;;
14613;SDS011;7393;51.446;6.800;2023-03-14T06:02:48;5.20;;;1.53;;
14613;SDS011;7393;51.446;6.800;2023-03-14T06:05:15;3.30;;;1.10;;
14613;SDS011;7393;51.446;6.800;2023-03-14T06:07:41;8.47;;;1.50;;
14613;SDS011;7393;51.446;6.800;2023-03-14T06:10:09;5.03;;;1.50;;
14613;SDS011;7393;51.446;6.800;2023-03-14T06:12:37;6.73;;;1.37;;
14613;SDS011;7393;51.446;6.800;2023-03-14T06:15:05;5.00;;;1.87;;
14613;SDS011;7393;51.446;6.800;2023-03-14T06:17:32;4.57;;;1.70;;
14613;SDS011;7393;51.446;6.800;2023-03-14T06:19:59;1.50;;;1.20;;
14613;SDS011;7393;51.446;6.800;2023-03-14T06:22:26;5.87;;;1.70;;
14613;SDS011;7393;51.446;6.800;2023-03-14T06:24:53;4.67;;;2.13;;
14613;SDS011;7393;51.446;6.800;2023-03-14T06:27:19;3.67;;;1.77;;
14613;SDS011;7393;51.446;6.800;2023-03-14T06:29:48;7.70;;;1.70;;
14613;SDS011;7393;51.446;6.800;2023-03-14T06:32:14;6.73;;;2.00;;
14613;SDS011;7393;51.446;6.800;2023-03-14T06:34:43;5.93;;;2.13;;
14613;SDS011;7393;51.446;6.800;2023-03-14T06:37:09;8.70;;;2.70;;
14613;SDS011;7393;51.446;6.800;2023-03-14T06:39:36;5.47;;;2.47;;
14613;SDS011;7393;51.446;6.800;2023-03-14T06:42:03;7.30;;;2.50;;
14613;SDS011;7393;51.446;6.800;2023-03-14T06:44:30;9.23;;;2.90;;
14613;SDS011;7393;51.446;6.800;2023-03-14T06:46:59;5.93;;;2.40;;
14613;SDS011;7393;51.446;6.800;2023-03-14T06:49:26;8.70;;;2.80;;
14613;SDS011;7393;51.446;6.800;2023-03-14T06:51:53;3.77;;;1.83;;
14613;SDS011;7393;51.446;6.800;2023-03-14T06:54:19;22.30;;;16.43;;
14613;SDS011;7393;51.446;6.800;2023-03-14T06:56:46;4.37;;;1.50;;
14613;SDS011;7393;51.446;6.800;2023-03-14T06:59:13;2.33;;;1.10;;
14613;SDS011;7393;51.446;6.800;2023-03-14T07:01:40;3.07;;;1.00;;
14613;SDS011;7393;51.446;6.800;2023-03-14T07:04:09;4.27;;;2.03;;
14613;SDS011;7393;51.446;6.800;2023-03-14T07:06:36;3.97;;;1.80;;
14613;SDS011;7393;51.446;6.800;2023-03-14T07:09:04;4.77;;;2.67;;
14613;SDS011;7393;51.446;6.800;2023-03-14T07:11:31;7.97;;;2.73;;
14613;SDS011;7393;51.446;6.800;2023-03-14T07:13:58;5.23;;;3.03;;
14613;SDS011;7393;51.446;6.800;2023-03-14T07:16:25;5.77;;;2.80;;
14613;SDS011;7393;51.446;6.800;2023-03-14T07:18:53;4.93;;;2.40;;
14613;SDS011;7393;51.446;6.800;2023-03-14T07:21:21;7.10;;;3.07;;
14613;SDS011;7393;51.446;6.800;2023-03-14T07:23:48;6.07;;;2.37;;
14613;SDS011;7393;51.446;6.800;2023-03-14T07:26:15;3.97;;;2.00;;
14613;SDS011;7393;51.446;6.800;2023-03-14T07:28:42;4.80;;;1.97;;
14613;SDS011;7393;51.446;6.800;2023-03-14T07:31:09;6.07;;;1.87;;
14613;SDS011;7393;51.446;6.800;2023-03-14T07:33:35;4.83;;;1.73;;
14613;SDS011;7393;51.446;6.800;2023-03-14T07:36:02;3.33;;;1.30;;
14613;SDS011;7393;51.446;6.800;2023-03-14T07:38:31;2.70;;;1.50;;
14613;SDS011;7393;51.446;6.800;2023-03-14T07:40:58;3.90;;;1.80;;
14613;SDS011;7393;51.446;6.800;2023-03-14T07:43:26;1.80;;;0.90;;
14613;SDS011;7393;51.446;6.800;2023-03-14T07:45:52;2.33;;;1.10;;
14613;SDS011;7393;51.446;6.800;2023-03-14T07:48:19;3.20;;;1.70;;
14613;SDS011;7393;51.446;6.800;2023-03-14T07:50:48;3.70;;;1.70;;
14613;SDS011;7393;51.446;6.800;2023-03-14T07:53:15;5.40;;;2.00;;
14613;SDS011;7393;51.446;6.800;2023-03-14T07:55:43;4.53;;;2.10;;
14613;SDS011;7393;51.446;6.800;2023-03-14T07:58:10;4.93;;;2.13;;
14613;SDS011;7393;51.446;6.800;2023-03-14T08:00:38;3.30;;;1.90;;
14613;SDS011;7393;51.446;6.800;2023-03-14T08:03:05;2.33;;;1.77;;
14613;SDS011;7393;51.446;6.800;2023-03-14T08:05:33;3.70;;;2.07;;
14613;SDS011;7393;51.446;6.800;2023-03-14T08:08:00;2.17;;;1.37;;
14613;SDS011;7393;51.446;6.800;2023-03-14T08:10:27;5.93;;;1.73;;
14613;SDS011;7393;51.446;6.800;2023-03-14T08:12:55;7.20;;;1.90;;
14613;SDS011;7393;51.446;6.800;2023-03-14T08:15:23;2.77;;;1.97;;
14613;SDS011;7393;51.446;6.800;2023-03-14T08:17:51;3.30;;;1.50;;
14613;SDS011;7393;51.446;6.800;2023-03-14T08:20:19;3.87;;;1.80;;
14613;SDS011;7393;51.446;6.800;2023-03-14T08:22:46;5.23;;;1.70;;
14613;SDS011;7393;51.446;6.800;2023-03-14T08:25:13;3.97;;;1.80;;
14613;SDS011;7393;51.446;6.800;2023-03-14T08:27:41;3.43;;;1.60;;
14613;SDS011;7393;51.446;6.800;2023-03-14T08:30:13;4.53;;;1.57;;
14613;SDS011;7393;51.446;6.800;2023-03-14T08:32:41;3.97;;;1.70;;
14613;SDS011;7393;51.446;6.800;2023-03-14T08:35:08;2.80;;;1.40;;
14613;SDS011;7393;51.446;6.800;2023-03-14T08:37:36;1.53;;;1.37;;
14613;SDS011;7393;51.446;6.800;2023-03-14T08:40:03;4.00;;;1.70;;
14613;SDS011;7393;51.446;6.800;2023-03-14T08:42:32;4.60;;;1.70;;
14613;SDS011;7393;51.446;6.800;2023-03-14T08:44:59;2.50;;;1.50;;
14613;SDS011;7393;51.446;6.800;2023-03-14T08:47:27;3.03;;;1.67;;
14613;SDS011;7393;51.446;6.800;2023-03-14T08:49:54;2.70;;;1.80;;
14613;SDS011;7393;51.446;6.800;2023-03-14T08:52:21;2.93;;;1.70;;
14613;SDS011;7393;51.446;6.800;2023-03-14T08:54:48;6.93;;;1.90;;
14613;SDS011;7393;51.446;6.800;2023-03-14T08:57:15;3.37;;;1.70;;
14613;SDS011;7393;51.446;6.800;2023-03-14T08:59:41;6.27;;;2.63;;
14613;SDS011;7393;51.446;6.800;2023-03-14T09:02:09;8.47;;;3.80;;
14613;SDS011;7393;51.446;6.800;2023-03-14T09:04:38;9.73;;;3.90;;
14613;SDS011;7393;51.446;6.800;2023-03-14T09:07:05;13.00;;;5.07;;
14613;SDS011;7393;51.446;6.800;2023-03-14T09:09:32;15.17;;;5.23;;
14613;SDS011;7393;51.446;6.800;2023-03-14T09:11:59;5.80;;;1.70;;
14613;SDS011;7393;51.446;6.800;2023-03-14T09:14:25;5.73;;;0.77;;
14613;SDS011;7393;51.446;6.800;2023-03-14T09:16:52;2.03;;;0.80;;
14613;SDS011;7393;51.446;6.800;2023-03-14T09:19:19;4.33;;;0.90;;
14613;SDS011;7393;51.446;6.800;2023-03-14T09:21:48;4.07;;;1.03;;
14613;SDS011;7393;51.446;6.800;2023-03-14T09:24:14;3.40;;;0.80;;
14613;SDS011;7393;51.446;6.800;2023-03-14T09:26:41;3.83;;;0.90;;
14613;SDS011;7393;51.446;6.800;2023-03-14T09:29:08;5.07;;;1.00;;
14613;SDS011;7393;51.446;6.800;2023-03-14T09:31:35;2.17;;;0.83;;
14613;SDS011;7393;51.446;6.800;2023-03-14T09:34:02;2.17;;;1.00;;
14613;SDS011;7393;51.446;6.800;2023-03-14T09:36:29;2.40;;;0.70;;
14613;SDS011;7393;51.446;6.800;2023-03-14T09:38:57;3.83;;;0.90;;
14613;SDS011;7393;51.446;6.800;2023-03-14T09:41:25;4.63;;;1.20;;
14613;SDS011;7393;51.446;6.800;2023-03-14T09:43:56;6.50;;;1.30;;
14613;SDS011;7393;51.446;6.800;2023-03-14T09:46:28;4.83;;;1.40;;
14613;SDS011;7393;51.446;6.800;2023-03-14T09:48:57;3.67;;;1.40;;
14613;SDS011;7393;51.446;6.800;2023-03-14T09:51:24;7.07;;;1.80;;
14613;SDS011;7393;51.446;6.800;2023-03-14T09:53:51;5.17;;;1.70;;
14613;SDS011;7393;51.446;6.800;2023-03-14T09:56:20;5.30;;;1.90;;
14613;SDS011;7393;51.446;6.800;2023-03-14T09:58:51;7.07;;;1.80;;
14613;SDS011;7393;51.446;6.800;2023-03-14T10:01:22;5.73;;;2.10;;
14613;SDS011;7393;51.446;6.800;2023-03-14T10:03:53;3.57;;;1.70;;
14613;SDS011;7393;51.446;6.800;2023-03-14T10:06:21;3.93;;;1.60;;
14613;SDS011;7393;51.446;6.800;2023-03-14T10:08:51;3.47;;;1.50;;
14613;SDS011;7393;51.446;6.800;2023-03-14T10:11:20;4.50;;;1.80;;
14613;SDS011;7393;51.446;6.800;2023-03-14T10:13:49;6.20;;;1.90;;
14613;SDS011;7393;51.446;6.800;2023-03-14T10:16:28;3.43;;;2.03;;
14613;SDS011;7393;51.446;6.800;2023-03-14T10:19:01;6.33;;;2.87;;
14613;SDS011;7393;51.446;6.800;2023-03-14T10:21:29;5.37;;;2.07;;
14613;SDS011;7393;51.446;6.800;2023-03-14T10:24:07;5.03;;;1.97;;
14613;SDS011;7393;51.446;6.800;2023-03-14T10:26:36;7.80;;;2.20;;
14613;SDS011;7393;51.446;6.800;2023-03-14T10:29:08;4.83;;;2.33;;
14613;SDS011;7393;51.446;6.800;2023-03-14T10:31:46;4.70;;;2.07;;
14613;SDS011;7393;51.446;6.800;2023-03-14T10:34:17;3.80;;;2.00;;
14613;SDS011;7393;51.446;6.800;2023-03-14T10:36:51;5.10;;;1.70;;
14613;SDS011;7393;51.446;6.800;2023-03-14T10:39:24;4.67;;;1.83;;
14613;SDS011;7393;51.446;6.800;2023-03-14T10:42:03;6.70;;;2.60;;
14613;SDS011;7393;51.446;6.800;2023-03-14T10:44:32;5.27;;;2.00;;
14613;SDS011;7393;51.446;6.800;2023-03-14T10:47:01;9.10;;;2.50;;
14613;SDS011;7393;51.446;6.800;2023-03-14T10:49:30;5.37;;;2.87;;
14613;SDS011;7393;51.446;6.800;2023-03-14T10:52:00;5.97;;;2.60;;
14613;SDS011;7393;51.446;6.800;2023-03-14T10:54:38;4.13;;;1.70;;
14613;SDS011;7393;51.446;6.800;2023-03-14T10:57:06;5.53;;;1.47;;
14613;SDS011;7393;51.446;6.800;2023-03-14T10:59:35;4.47;;;1.93;;
14613;SDS011;7393;51.446;6.800;2023-03-14T11:02:03;4.33;;;2.70;;
14613;SDS011;7393;51.446;6.800;2023-03-14T11:04:44;4.57;;;2.70;;
14613;SDS011;7393;51.446;6.800;2023-03-14T11:07:24;7.70;;;2.13;;
14613;SDS011;7393;51.446;6.800;2023-03-14T11:09:56;4.47;;;1.73;;
14613;SDS011;7393;51.446;6.800;2023-03-14T11:12:38;3.67;;;1.60;;
14613;SDS011;7393;51.446;6.800;2023-03-14T11:15:16;2.73;;;1.07;;
14613;SDS011;7393;51.446;6.800;2023-03-14T11:17:50;3.57;;;1.10;;
14613;SDS011;7393;51.446;6.800;2023-03-14T11:20:33;1.10;;;0.60;;
14613;SDS011;7393;51.446;6.800;2023-03-14T11:23:08;3.00;;;1.00;;
14613;SDS011;7393;51.446;6.800;2023-03-14T11:25:42;2.40;;;0.77;;
14613;SDS011;7393;51.446;6.800;2023-03-14T11:28:19;3.67;;;1.10;;
14613;SDS011;7393;51.446;6.800;2023-03-14T11:30:54;3.30;;;1.10;;
14613;SDS011;7393;51.446;6.800;2023-03-14T11:33:25;2.90;;;0.93;;
14613;SDS011;7393;51.446;6.800;2023-03-14T11:35:58;5.90;;;1.27;;
14613;SDS011;7393;51.446;6.800;2023-03-14T11:38:30;1.60;;;0.60;;
14613;SDS011;7393;51.446;6.800;2023-03-14T11:41:03;2.87;;;0.87;;
14613;SDS011;7393;51.446;6.800;2023-03-14T11:43:39;2.20;;;0.93;;
14613;SDS011;7393;51.446;6.800;2023-03-14T11:46:09;2.80;;;1.17;;
14613;SDS011;7393;51.446;6.800;2023-03-14T11:48:41;5.10;;;1.03;;
14613;SDS011;7393;51.446;6.800;2023-03-14T11:51:16;3.63;;;1.70;;
14613;SDS011;7393;51.446;6.800;2023-03-14T11:53:55;4.70;;;1.40;;
14613;SDS011;7393;51.446;6.800;2023-03-14T11:56:27;3.17;;;1.20;;
14613;SDS011;7393;51.446;6.800;2023-03-14T11:59:01;3.60;;;1.60;;
14613;SDS011;7393;51.446;6.800;2023-03-14T12:01:34;2.00;;;0.80;;
14613;SDS011;7393;51.446;6.800;2023-03-14T12:04:13;3.27;;;0.73;;
14613;SDS011;7393;51.446;6.800;2023-03-14T12:06:46;4.30;;;1.07;;
14613;SDS011;7393;51.446;6.800;2023-03-14T12:09:15;3.00;;;0.90;;
14613;SDS011;7393;51.446;6.800;2023-03-14T12:11:44;4.27;;;1.13;;
14613;SDS011;7393;51.446;6.800;2023-03-14T12:14:18;6.10;;;1.07;;
14613;SDS011;7393;51.446;6.800;2023-03-14T12:16:48;4.50;;;0.80;;
14613;SDS011;7393;51.446;6.800;2023-03-14T12:19:25;4.83;;;1.00;;
14613;SDS011;7393;51.446;6.800;2023-03-14T12:22:06;6.70;;;1.37;;
14613;SDS011;7393;51.446;6.800;2023-03-14T12:24:49;3.93;;;1.20;;
14613;SDS011;7393;51.446;6.800;2023-03-14T12:30:14;3.70;;;1.73;;
14613;SDS011;7393;51.446;6.800;2023-03-14T12:36:02;8.17;;;2.40;;
14613;SDS011;7393;51.446;6.800;2023-03-14T12:38:37;6.47;;;2.07;;
14613;SDS011;7393;51.446;6.800;2023-03-14T12:41:13;12.93;;;2.23;;
14613;SDS011;7393;51.446;6.800;2023-03-14T12:43:43;8.27;;;2.30;;
14613;SDS011;7393;51.446;6.800;2023-03-14T12:46:21;7.57;;;1.97;;
14613;SDS011;7393;51.446;6.800;2023-03-14T12:48:54;6.67;;;1.70;;
14613;SDS011;7393;51.446;6.800;2023-03-14T12:51:28;8.87;;;1.67;;
14613;SDS011;7393;51.446;6.800;2023-03-14T12:54:06;8.77;;;2.13;;
14613;SDS011;7393;51.446;6.800;2023-03-14T12:56:59;6.73;;;1.60;;
14613;SDS011;7393;51.446;6.800;2023-03-14T12:59:45;8.20;;;1.60;;
14613;SDS011;7393;51.446;6.800;2023-03-14T13:02:17;10.07;;;1.87;;
14613;SDS011;7393;51.446;6.800;2023-03-14T13:04:49;11.77;;;1.93;;
14613;SDS011;7393;51.446;6.800;2023-03-14T13:07:32;8.47;;;1.67;;
14613;SDS011;7393;51.446;6.800;2023-03-14T13:10:18;11.03;;;2.50;;
14613;SDS011;7393;51.446;6.800;2023-03-14T13:12:50;13.80;;;2.73;;
14613;SDS011;7393;51.446;6.800;2023-03-14T13:15:21;15.00;;;2.60;;
14613;SDS011;7393;51.446;6.800;2023-03-14T13:17:54;9.40;;;1.90;;
14613;SDS011;7393;51.446;6.800;2023-03-14T13:20:28;12.27;;;1.97;;
14613;SDS011;7393;51.446;6.800;2023-03-14T13:22:57;11.63;;;1.87;;
14613;SDS011;7393;51.446;6.800;2023-03-14T13:25:24;9.03;;;2.20;;
14613;SDS011;7393;51.446;6.800;2023-03-14T13:27:56;13.33;;;2.47;;
14613;SDS011;7393;51.446;6.800;2023-03-14T13:30:23;11.27;;;2.53;;
14613;SDS011;7393;51.446;6.800;2023-03-14T13:32:52;9.97;;;2.30;;
14613;SDS011;7393;51.446;6.800;2023-03-14T13:35:22;20.73;;;3.67;;
14613;SDS011;7393;51.446;6.800;2023-03-14T13:37:55;13.57;;;3.10;;
14613;SDS011;7393;51.446;6.800;2023-03-14T13:40:24;11.07;;;2.90;;
14613;SDS011;7393;51.446;6.800;2023-03-14T13:43:01;17.73;;;3.20;;
14613;SDS011;7393;51.446;6.800;2023-03-14T13:45:30;16.73;;;3.50;;
14613;SDS011;7393;51.446;6.800;2023-03-14T13:47:58;13.47;;;2.50;;
14613;SDS011;7393;51.446;6.800;2023-03-14T13:50:25;12.67;;;2.40;;
14613;SDS011;7393;51.446;6.800;2023-03-14T13:52:55;16.30;;;3.10;;
14613;SDS011;7393;51.446;6.800;2023-03-14T13:55:23;13.17;;;3.03;;
14613;SDS011;7393;51.446;6.800;2023-03-14T13:57:50;12.70;;;2.47;;
14613;SDS011;7393;51.446;6.800;2023-03-14T14:00:20;14.03;;;2.53;;
14613;SDS011;7393;51.446;6.800;2023-03-14T14:02:51;12.40;;;2.90;;
14613;SDS011;7393;51.446;6.800;2023-03-14T14:05:20;15.63;;;2.50;;
14613;SDS011;7393;51.446;6.800;2023-03-14T14:07:48;12.30;;;2.47;;
14613;SDS011;7393;51.446;6.800;2023-03-14T14:10:16;15.53;;;2.70;;
14613;SDS011;7393;51.446;6.800;2023-03-14T14:12:45;14.47;;;2.57;;
14613;SDS011;7393;51.446;6.800;2023-03-14T14:15:16;9.30;;;2.40;;
14613;SDS011;7393;51.446;6.800;2023-03-14T14:17:47;8.33;;;1.87;;
14613;SDS011;7393;51.446;6.800;2023-03-14T14:20:21;11.60;;;2.30;;
14613;SDS011;7393;51.446;6.800;2023-03-14T14:22:56;6.97;;;1.80;;
14613;SDS011;7393;51.446;6.800;2023-03-14T14:25:24;11.07;;;2.13;;
14613;SDS011;7393;51.446;6.800;2023-03-14T14:27:51;7.43;;;1.67;;
14613;SDS011;7393;51.446;6.800;2023-03-14T14:30:31;7.10;;;1.90;;
14613;SDS011;7393;51.446;6.800;2023-03-14T14:33:12;10.17;;;1.83;;
14613;SDS011;7393;51.446;6.800;2023-03-14T14:35:50;7.77;;;2.03;;
14613;SDS011;7393;51.446;6.800;2023-03-14T14:38:20;7.47;;;1.77;;
14613;SDS011;7393;51.446;6.800;2023-03-14T14:40:48;9.97;;;3.37;;
14613;SDS011;7393;51.446;6.800;2023-03-14T14:43:18;11.90;;;1.87;;
14613;SDS011;7393;51.446;6.800;2023-03-14T14:45:47;5.53;;;1.33;;
14613;SDS011;7393;51.446;6.800;2023-03-14T14:48:17;6.23;;;1.80;;
14613;SDS011;7393;51.446;6.800;2023-03-14T14:50:54;8.40;;;1.90;;
14613;SDS011;7393;51.446;6.800;2023-03-14T14:53:24;10.33;;;1.80;;
14613;SDS011;7393;51.446;6.800;2023-03-14T14:55:54;9.13;;;1.77;;
14613;SDS011;7393;51.446;6.800;2023-03-14T14:58:23;8.67;;;2.20;;
14613;SDS011;7393;51.446;6.800;2023-03-14T15:00:53;8.13;;;2.10;;
14613;SDS011;7393;51.446;6.800;2023-03-14T15:03:22;5.97;;;1.80;;
14613;SDS011;7393;51.446;6.800;2023-03-14T15:05:55;11.83;;;2.27;;
14613;SDS011;7393;51.446;6.800;2023-03-14T15:08:22;5.87;;;1.90;;
14613;SDS011;7393;51.446;6.800;2023-03-14T15:10:50;7.80;;;1.70;;
14613;SDS011;7393;51.446;6.800;2023-03-14T15:13:17;7.30;;;1.40;;
14613;SDS011;7393;51.446;6.800;2023-03-14T15:15:44;9.40;;;2.20;;
14613;SDS011;7393;51.446;6.800;2023-03-14T15:18:12;8.93;;;2.00;;
14613;SDS011;7393;51.446;6.800;2023-03-14T15:20:41;6.67;;;1.47;;